createdAt,value
2023-02-03T00:00:31.949Z,18.30
2023-02-03T00:03:00.198Z,19.90
2023-02-03T00:05:28.635Z,18.50
2023-02-03T00:07:57.060Z,20.70
2023-02-03T00:10:25.720Z,19.60
2023-02-03T00:12:54.367Z,20.20
2023-02-03T00:15:23.426Z,21.40
2023-02-03T00:17:51.853Z,18.30
2023-02-03T00:20:19.920Z,20.60
2023-02-03T00:22:48.197Z,19.30
2023-02-03T00:25:16.219Z,20.90
2023-02-03T00:27:44.647Z,21.40
2023-02-03T00:30:13.033Z,22.40
2023-02-03T00:32:41.393Z,25.80
2023-02-03T00:35:09.359Z,22.50
2023-02-03T00:37:38.370Z,27.70
2023-02-03T00:40:06.630Z,23.00
2023-02-03T00:42:35.931Z,21.90
2023-02-03T00:45:04.196Z,22.60
2023-02-03T00:47:32.415Z,23.40
2023-02-03T00:50:00.734Z,19.60
2023-02-03T00:52:29.581Z,22.40
2023-02-03T00:54:57.629Z,23.90
2023-02-03T00:57:25.743Z,25.60
2023-02-03T00:59:54.925Z,22.50
2023-02-03T01:02:22.963Z,24.40
2023-02-03T01:04:52.161Z,23.40
2023-02-03T01:07:20.351Z,27.50
2023-02-03T01:09:50.195Z,25.90
2023-02-03T01:12:18.283Z,22.70
2023-02-03T01:14:46.507Z,22.70
2023-02-03T01:17:14.556Z,24.40
2023-02-03T01:19:42.751Z,22.40
2023-02-03T01:22:11.026Z,28.00
2023-02-03T01:24:38.998Z,22.70
2023-02-03T01:27:07.418Z,22.50
2023-02-03T01:29:35.843Z,23.40
2023-02-03T01:32:04.631Z,24.90
2023-02-03T01:34:32.954Z,27.70
2023-02-03T01:37:00.972Z,26.70
2023-02-03T01:39:30.218Z,20.10
2023-02-03T01:41:58.908Z,26.10
2023-02-03T01:44:47.839Z,26.50
2023-02-03T01:47:21.507Z,18.50
2023-02-03T01:50:01.580Z,18.70
2023-02-03T01:52:30.166Z,18.70
2023-02-03T01:54:58.891Z,20.30
2023-02-03T01:57:35.104Z,22.90
2023-02-03T02:00:05.034Z,26.80
2023-02-03T02:02:43.146Z,24.60
2023-02-03T02:05:34.455Z,20.10
2023-02-03T02:08:03.483Z,16.20
2023-02-03T02:10:31.691Z,16.60
2023-02-03T02:13:02.355Z,15.20
2023-02-03T02:15:43.677Z,17.50
2023-02-03T02:18:24.210Z,18.50
2023-02-03T02:20:55.358Z,20.20
2023-02-03T02:23:32.668Z,17.10
2023-02-03T02:26:22.481Z,18.60
2023-02-03T02:29:16.529Z,18.10
2023-02-03T02:31:56.602Z,16.90
2023-02-03T02:34:37.454Z,14.90
2023-02-03T02:37:05.604Z,18.10
2023-02-03T02:39:56.263Z,17.10
2023-02-03T02:42:41.743Z,21.50
2023-02-03T02:45:19.946Z,17.30
2023-02-03T02:47:48.894Z,18.60
2023-02-03T02:50:23.601Z,17.30
2023-02-03T02:52:52.216Z,17.40
2023-02-03T02:55:30.790Z,16.00
2023-02-03T02:58:04.066Z,13.80
2023-02-03T03:00:32.485Z,14.90
2023-02-03T03:03:15.947Z,15.50
2023-02-03T03:05:48.497Z,15.50
2023-02-03T03:08:17.060Z,14.60
2023-02-03T03:10:45.056Z,16.60
2023-02-03T03:13:17.517Z,16.40
2023-02-03T03:15:47.302Z,17.10
2023-02-03T03:18:25.662Z,16.80
2023-02-03T03:20:56.077Z,18.80
2023-02-03T03:23:27.897Z,20.90
2023-02-03T03:26:10.759Z,17.30
2023-02-03T03:28:49.973Z,18.00
2023-02-03T03:31:18.718Z,19.00
2023-02-03T03:33:47.149Z,18.60
2023-02-03T03:36:26.023Z,17.10
2023-02-03T03:38:57.208Z,17.90
2023-02-03T03:41:30.170Z,15.80
2023-02-03T03:44:00.320Z,11.80
2023-02-03T03:46:30.328Z,14.90
2023-02-03T03:49:03.435Z,13.90
2023-02-03T03:51:47.117Z,14.50
2023-02-03T03:54:16.683Z,13.30
2023-02-03T03:57:23.766Z,15.20
2023-02-03T03:59:52.158Z,14.00
2023-02-03T04:02:20.604Z,14.40
2023-02-03T04:04:49.533Z,13.90
2023-02-03T04:07:18.375Z,14.50
2023-02-03T04:09:46.590Z,14.70
2023-02-03T04:12:24.279Z,13.60
2023-02-03T04:14:52.979Z,15.40
2023-02-03T04:17:21.494Z,15.60
2023-02-03T04:19:49.482Z,15.00
2023-02-03T04:22:17.427Z,15.90
2023-02-03T04:24:45.390Z,16.40
2023-02-03T04:27:14.174Z,18.40
2023-02-03T04:29:42.145Z,17.70
2023-02-03T04:32:10.347Z,17.50
2023-02-03T04:34:38.830Z,17.20
2023-02-03T04:37:06.935Z,15.30
2023-02-03T04:39:35.934Z,12.40
2023-02-03T04:42:04.076Z,15.40
2023-02-03T04:44:32.953Z,15.90
2023-02-03T04:47:01.112Z,16.80
2023-02-03T04:49:29.809Z,14.80
2023-02-03T04:51:57.812Z,17.20
2023-02-03T04:54:25.920Z,16.00
2023-02-03T04:56:55.475Z,17.70
2023-02-03T04:59:23.732Z,17.50
2023-02-03T05:01:51.730Z,16.00
2023-02-03T05:04:19.765Z,17.40
2023-02-03T05:06:48.871Z,15.60
2023-02-03T05:09:17.267Z,14.70
2023-02-03T05:11:48.085Z,14.90
2023-02-03T05:14:16.528Z,14.60
2023-02-03T05:16:46.319Z,15.00
2023-02-03T05:19:14.809Z,17.80
2023-02-03T05:21:43.098Z,14.70
2023-02-03T05:24:11.711Z,15.90
2023-02-03T05:26:42.187Z,14.50
2023-02-03T05:29:11.979Z,16.70
2023-02-03T05:31:40.724Z,17.20
2023-02-03T05:34:08.990Z,16.00
2023-02-03T05:36:37.174Z,17.60
2023-02-03T05:46:45.078Z,16.40
2023-02-03T05:49:14.392Z,15.80
2023-02-03T05:51:43.042Z,14.60
2023-02-03T05:54:11.607Z,17.10
2023-02-03T05:56:40.754Z,17.20
2023-02-03T05:59:09.000Z,16.00
2023-02-03T06:01:37.826Z,17.00
2023-02-03T08:15:44.835Z,33.20
2023-02-03T08:18:12.040Z,35.50
2023-02-03T08:20:38.734Z,31.40
2023-02-03T08:23:06.915Z,35.20
2023-02-03T08:25:34.511Z,34.90
2023-02-03T08:28:02.907Z,31.50
2023-02-03T08:30:30.540Z,30.70
2023-02-03T08:32:57.957Z,26.70
2023-02-03T08:35:25.356Z,28.30
2023-02-03T08:37:52.239Z,28.60
2023-02-03T08:40:19.133Z,29.10
2023-02-03T08:42:46.936Z,27.40
2023-02-03T08:45:13.594Z,26.50
2023-02-03T08:47:43.727Z,33.10
2023-02-03T08:50:10.839Z,30.60
2023-02-03T08:52:37.532Z,28.30
2023-02-03T08:55:04.735Z,29.00
2023-02-03T08:57:35.430Z,26.10
2023-02-03T09:00:05.947Z,24.90
2023-02-03T09:02:32.763Z,21.90
2023-02-03T09:05:00.042Z,24.30
2023-02-03T09:07:30.914Z,24.00
2023-02-03T09:09:57.899Z,22.90
2023-02-03T09:12:24.766Z,27.70
2023-02-03T09:14:51.512Z,21.70
2023-02-03T09:17:18.236Z,21.20
2023-02-03T09:19:44.975Z,22.60
2023-02-03T09:22:12.861Z,20.50
2023-02-03T09:24:40.030Z,20.80
2023-02-03T09:27:06.795Z,18.40
2023-02-03T09:29:34.052Z,21.50
2023-02-03T09:32:06.421Z,18.50
2023-02-03T09:34:33.292Z,18.10
2023-02-03T09:37:00.751Z,20.10
2023-02-03T09:39:27.446Z,18.80
2023-02-03T09:42:36.492Z,15.90
2023-02-03T09:45:12.202Z,15.00
2023-02-03T09:47:40.652Z,15.90
2023-02-03T09:50:13.263Z,15.50
2023-02-03T09:52:40.387Z,12.90
2023-02-03T09:55:16.536Z,15.40
2023-02-03T09:57:56.346Z,13.30
2023-02-03T10:00:41.527Z,15.50
2023-02-03T10:03:24.684Z,14.60
2023-02-03T10:09:23.894Z,12.50
2023-02-03T10:11:57.359Z,12.30
2023-02-03T10:14:46.244Z,13.20
2023-02-03T10:17:28.631Z,13.90
2023-02-03T10:20:20.981Z,12.20
2023-02-03T10:22:50.350Z,14.20
2023-02-03T10:25:24.349Z,12.70
2023-02-03T10:27:52.878Z,13.00
2023-02-03T10:30:24.838Z,15.40
2023-02-03T10:32:57.090Z,15.00
2023-02-03T10:35:27.988Z,15.00
2023-02-03T10:37:56.991Z,17.80
2023-02-03T10:40:24.268Z,16.10
2023-02-03T10:43:20.936Z,21.10
2023-02-03T10:45:47.698Z,17.10
2023-02-03T10:48:16.374Z,16.30
2023-02-03T10:50:45.907Z,16.30
2023-02-03T10:53:35.741Z,16.10
2023-02-03T10:56:10.928Z,13.40
2023-02-03T10:58:38.435Z,15.30
2023-02-03T11:01:15.901Z,16.90
2023-02-03T11:04:00.203Z,16.90
2023-02-03T11:06:31.322Z,21.60
2023-02-03T11:08:59.893Z,18.70
2023-02-03T11:11:32.436Z,18.60
2023-02-03T11:14:03.663Z,16.00
2023-02-03T11:16:33.618Z,15.10
2023-02-03T11:19:04.038Z,13.60
2023-02-03T11:21:37.039Z,18.80
2023-02-03T11:24:21.885Z,15.90
2023-02-03T11:27:06.170Z,20.00
2023-02-03T11:29:36.126Z,11.60
2023-02-03T11:32:06.471Z,12.40
2023-02-03T11:34:42.309Z,12.30
2023-02-03T11:37:29.149Z,10.60
2023-02-03T11:40:06.138Z,9.30
2023-02-03T11:42:37.633Z,10.90
2023-02-03T11:45:29.134Z,10.00
2023-02-03T11:47:58.844Z,10.40
2023-02-03T11:50:29.040Z,11.30
2023-02-03T11:53:31.805Z,11.30
2023-02-03T11:56:17.787Z,10.00
2023-02-03T11:58:58.114Z,11.20
2023-02-03T12:01:59.385Z,12.80
2023-02-03T12:04:55.936Z,11.40
2023-02-03T12:07:56.928Z,11.60
2023-02-03T12:11:04.451Z,12.40
2023-02-03T12:13:49.773Z,13.20
2023-02-03T12:16:20.893Z,11.60
2023-02-03T12:19:18.982Z,12.30
2023-02-03T12:21:50.841Z,14.00
2023-02-03T12:24:27.006Z,13.10
2023-02-03T12:27:14.055Z,11.00
2023-02-03T12:29:43.421Z,9.70
2023-02-03T12:32:25.724Z,10.80
2023-02-03T12:34:52.527Z,9.80
2023-02-03T12:37:23.548Z,9.10
2023-02-03T12:40:15.498Z,14.70
2023-02-03T12:42:51.565Z,13.80
2023-02-03T12:45:26.197Z,10.80
2023-02-03T12:48:00.670Z,13.50
2023-02-03T12:50:40.247Z,8.40
2023-02-03T12:53:14.318Z,6.40
2023-02-03T12:55:55.361Z,5.30
2023-02-03T12:58:25.399Z,5.50
2023-02-03T13:01:06.402Z,5.50
2023-02-03T13:03:35.555Z,5.10
2023-02-03T13:06:15.427Z,5.20
2023-02-03T13:08:45.456Z,5.60
2023-02-03T13:11:34.527Z,5.50
2023-02-03T13:14:05.307Z,5.40
2023-02-03T13:16:34.805Z,5.80
2023-02-03T13:19:22.493Z,6.50
2023-02-03T13:21:49.538Z,6.00
2023-02-03T13:24:16.693Z,7.30
2023-02-03T13:27:08.658Z,5.50
2023-02-03T13:29:49.333Z,11.10
2023-02-03T13:32:23.506Z,11.10
2023-02-03T13:34:53.858Z,11.40
2023-02-03T13:37:33.040Z,6.90
2023-02-03T13:40:02.833Z,6.60
2023-02-03T13:42:33.086Z,6.30
2023-02-03T13:45:11.225Z,7.90
2023-02-03T13:47:38.283Z,5.80
2023-02-03T13:50:08.196Z,5.00
2023-02-03T13:52:38.844Z,3.80
2023-02-03T13:55:05.636Z,3.10
2023-02-03T13:57:40.596Z,3.20
2023-02-03T14:00:42.882Z,3.30
2023-02-03T14:03:39.587Z,3.20
2023-02-03T14:06:30.055Z,3.50
2023-02-03T14:09:00.430Z,4.20
2023-02-03T14:11:37.399Z,4.30
2023-02-03T14:14:07.446Z,4.00
2023-02-03T14:16:40.833Z,4.00
2023-02-03T14:19:11.679Z,3.70
2023-02-03T14:21:54.739Z,5.80
2023-02-03T14:24:21.571Z,10.90
2023-02-03T14:26:52.253Z,8.40
2023-02-03T14:29:29.443Z,7.90
2023-02-03T14:32:05.891Z,9.70
2023-02-03T14:34:38.610Z,11.50
2023-02-03T14:37:23.664Z,6.60
2023-02-03T14:40:13.665Z,7.60
2023-02-03T14:43:10.237Z,5.60
2023-02-03T14:45:57.427Z,11.20
2023-02-03T14:48:28.560Z,6.10
2023-02-03T14:51:17.696Z,4.20
2023-02-03T14:53:46.259Z,5.00
2023-02-03T14:56:22.349Z,3.80
2023-02-03T14:59:00.769Z,4.30
2023-02-03T15:01:36.971Z,4.60
2023-02-03T15:04:14.877Z,4.00
2023-02-03T15:06:43.400Z,4.00
2023-02-03T15:09:39.870Z,4.10
2023-02-03T15:12:34.547Z,6.40
2023-02-03T15:15:14.951Z,11.50
2023-02-03T15:17:42.099Z,10.20
2023-02-03T15:20:38.199Z,9.90
2023-02-03T15:23:23.701Z,9.90
2023-02-03T15:25:54.777Z,14.90
2023-02-03T15:28:22.166Z,15.10
2023-02-03T15:30:52.102Z,12.00
2023-02-03T15:33:21.492Z,11.90
2023-02-03T15:36:01.226Z,13.40
2023-02-03T15:38:49.599Z,10.70
2023-02-03T15:41:25.702Z,13.60
2023-02-03T15:43:56.063Z,12.60
2023-02-03T15:46:27.250Z,13.20
2023-02-03T15:49:17.750Z,12.20
2023-02-03T15:51:53.684Z,12.50
2023-02-03T15:54:29.846Z,11.70
2023-02-03T15:57:01.786Z,12.20
2023-02-03T15:59:34.303Z,13.50
2023-02-03T16:02:06.287Z,12.50
2023-02-03T16:04:33.303Z,12.40
2023-02-03T16:06:59.985Z,12.60
2023-02-03T16:09:29.194Z,14.30
2023-02-03T16:12:05.709Z,12.60
2023-02-03T16:14:34.733Z,12.00
2023-02-03T16:17:05.870Z,11.50
2023-02-03T16:19:37.449Z,13.50
2023-02-03T16:22:04.106Z,13.90
2023-02-03T16:24:45.613Z,14.00
2023-02-03T16:27:30.736Z,12.40
2023-02-03T16:30:25.735Z,13.40
2023-02-03T16:33:27.424Z,14.20
2023-02-03T16:36:14.206Z,15.00
2023-02-03T16:39:05.792Z,15.70
2023-02-03T16:41:52.202Z,13.00
2023-02-03T16:44:37.597Z,12.80
2023-02-03T16:47:45.827Z,14.20
2023-02-03T16:50:49.837Z,13.40
2023-02-03T16:53:28.527Z,16.30
2023-02-03T16:55:58.980Z,16.40
2023-02-03T16:58:25.991Z,15.00
2023-02-03T17:00:55.463Z,15.60
2023-02-03T17:03:23.826Z,15.80
2023-02-03T17:05:51.230Z,16.20
2023-02-03T17:08:19.650Z,14.30
2023-02-03T17:10:47.532Z,13.70
2023-02-03T17:13:15.198Z,14.20
2023-02-03T17:15:43.586Z,14.60
2023-02-03T17:18:11.183Z,16.30
2023-02-03T17:20:39.504Z,14.80
2023-02-03T17:23:06.908Z,14.10
2023-02-03T17:25:45.398Z,12.80
2023-02-03T17:28:14.363Z,12.50
2023-02-03T17:30:43.686Z,10.50
2023-02-03T17:33:12.967Z,12.40
2023-02-03T17:35:41.049Z,11.50
2023-02-03T17:38:09.064Z,11.20
2023-02-03T17:54:38.956Z,12.40
2023-02-03T17:57:05.575Z,10.60
2023-02-03T17:59:34.430Z,10.70
2023-02-03T18:02:01.316Z,10.50
2023-02-03T18:04:29.829Z,10.50
2023-02-03T18:06:58.744Z,9.50
2023-02-03T18:09:26.818Z,10.30
2023-02-03T18:11:54.403Z,11.10
2023-02-03T18:14:21.304Z,12.40
2023-02-03T18:16:48.731Z,14.00
2023-02-03T18:19:16.654Z,10.80
2023-02-03T18:21:44.498Z,9.40
2023-02-03T18:24:12.435Z,9.00
2023-02-03T18:26:50.359Z,10.60
2023-02-03T18:29:17.636Z,9.00
2023-02-03T18:31:45.004Z,9.80
2023-02-03T18:34:12.349Z,8.30
2023-02-03T18:39:07.584Z,8.50
2023-02-03T18:41:36.187Z,8.50
2023-02-03T18:44:03.030Z,7.90
2023-02-03T18:46:30.801Z,9.00
2023-02-03T18:48:58.003Z,7.80
2023-02-03T18:51:25.418Z,8.00
2023-02-03T18:53:56.462Z,7.40
2023-02-03T18:56:25.196Z,8.20
2023-02-03T18:58:52.194Z,8.00
2023-02-03T19:01:22.346Z,8.10
2023-02-03T19:03:52.022Z,7.10
2023-02-03T19:06:18.931Z,7.70
2023-02-03T19:08:45.683Z,8.20
2023-02-03T19:11:14.588Z,7.20
2023-02-03T19:13:42.366Z,8.10
2023-02-03T19:16:11.169Z,8.10
2023-02-03T19:18:38.671Z,8.60
2023-02-03T19:21:05.550Z,7.80
2023-02-03T19:23:32.918Z,9.00
2023-02-03T19:26:00.240Z,7.20
2023-02-03T19:28:30.898Z,9.70
2023-02-03T19:31:07.876Z,7.80
2023-02-03T19:33:36.373Z,10.10
2023-02-03T19:36:04.711Z,8.10
2023-02-03T19:38:32.301Z,7.90
2023-02-03T19:41:01.143Z,8.20
2023-02-03T19:43:31.957Z,6.90
2023-02-03T19:45:59.027Z,8.30
2023-02-03T19:48:26.675Z,8.10
2023-02-03T19:50:54.068Z,7.70
2023-02-03T19:53:23.570Z,8.10
2023-02-03T19:55:50.647Z,8.10
2023-02-03T19:58:17.461Z,7.70
2023-02-03T20:00:44.500Z,9.00
2023-02-03T20:03:11.793Z,7.40
2023-02-03T20:05:38.687Z,9.20
2023-02-03T20:08:05.952Z,8.80
2023-02-03T20:10:33.256Z,7.90
2023-02-03T20:13:00.603Z,7.80
2023-02-03T20:15:27.393Z,8.30
2023-02-03T20:17:54.745Z,7.90
2023-02-03T20:20:21.662Z,6.60
2023-02-03T20:22:48.452Z,8.10
2023-02-03T20:25:16.223Z,8.40
2023-02-03T20:27:43.182Z,8.60
2023-02-03T20:30:11.041Z,8.00
2023-02-03T20:32:37.855Z,9.30
2023-02-03T20:35:06.002Z,8.40
2023-02-03T20:37:35.623Z,11.50
2023-02-03T20:40:05.805Z,12.50
2023-02-03T20:42:32.698Z,13.10
2023-02-03T20:45:00.083Z,12.80
2023-02-03T20:47:27.316Z,13.20
2023-02-03T20:49:55.223Z,11.90
2023-02-03T20:52:21.992Z,12.30
2023-02-03T20:54:49.026Z,10.90
2023-02-03T20:57:17.560Z,13.60
2023-02-03T20:59:45.299Z,15.10
2023-02-03T21:02:50.653Z,14.40
2023-02-03T21:05:25.607Z,11.50
2023-02-03T21:07:55.610Z,9.90
2023-02-03T21:10:23.204Z,9.80
2023-02-03T21:12:50.817Z,9.40
2023-02-03T21:15:28.785Z,10.00
2023-02-03T21:17:55.914Z,12.40
2023-02-03T21:20:30.588Z,13.00
2023-02-03T21:23:02.212Z,17.70
2023-02-03T21:25:33.032Z,17.80
2023-02-03T21:28:00.601Z,15.60
2023-02-03T21:30:33.710Z,13.40
2023-02-03T21:33:13.242Z,11.70
2023-02-03T21:35:39.977Z,15.40
2023-02-03T21:38:28.796Z,12.10
2023-02-03T21:40:56.361Z,12.30
2023-02-03T21:43:24.150Z,11.30
2023-02-03T21:45:50.878Z,11.60
2023-02-03T21:48:51.172Z,11.70
2023-02-03T21:51:20.281Z,11.60
2023-02-03T21:53:56.664Z,12.60
2023-02-03T21:56:42.390Z,13.30
2023-02-03T21:59:25.611Z,14.50
2023-02-03T22:01:53.155Z,15.00
2023-02-03T22:04:19.859Z,15.60
2023-02-03T22:06:49.854Z,14.30
2023-02-03T22:09:17.822Z,12.70
2023-02-03T22:12:04.893Z,15.70
2023-02-03T22:14:34.027Z,12.60
2023-02-03T22:17:01.766Z,11.40
2023-02-03T22:19:31.667Z,11.30
2023-02-03T22:21:58.578Z,9.50
2023-02-03T22:24:25.250Z,10.00
2023-02-03T22:26:54.294Z,10.40
2023-02-03T22:29:22.491Z,10.60
2023-02-03T22:31:49.586Z,12.60
2023-02-03T22:34:18.411Z,11.00
2023-02-03T22:36:45.003Z,10.50
2023-02-03T22:39:12.777Z,12.80
2023-02-03T22:41:39.612Z,13.30
2023-02-03T22:44:06.320Z,14.50
2023-02-03T22:46:32.979Z,15.60
2023-02-03T22:48:59.698Z,15.20
2023-02-03T22:51:26.477Z,15.60
2023-02-03T22:53:53.326Z,14.90
2023-02-03T22:56:21.191Z,12.80
2023-02-03T22:58:48.957Z,12.90
2023-02-03T23:01:15.826Z,13.00
2023-02-03T23:03:42.569Z,13.20
2023-02-03T23:06:09.636Z,14.20
2023-02-03T23:08:36.594Z,10.70
2023-02-03T23:11:03.405Z,12.20
2023-02-03T23:13:32.921Z,12.50
2023-02-03T23:16:00.297Z,12.50
2023-02-03T23:18:27.474Z,11.10
2023-02-03T23:20:54.918Z,13.90
2023-02-03T23:23:21.976Z,14.00
2023-02-03T23:25:49.160Z,11.60
2023-02-03T23:28:16.032Z,13.50
2023-02-03T23:30:43.058Z,12.70
2023-02-03T23:33:10.128Z,12.80
2023-02-03T23:35:48.484Z,15.90
2023-02-03T23:38:15.892Z,16.90
2023-02-03T23:40:43.401Z,13.60
2023-02-03T23:43:10.421Z,17.10
2023-02-03T23:45:37.480Z,17.10
2023-02-03T23:48:04.734Z,18.40
2023-02-03T23:50:31.965Z,17.60
2023-02-03T23:52:59.176Z,17.60
2023-02-03T23:55:26.057Z,18.50
2023-02-03T23:57:53.245Z,18.40
